sensor_id;sensor_type;location;lat;lon;timestamp;pressure;altitude;pressure_sealevel;temperature;humidity
35704;BME280;21820;51.112;13.762;2023-03-22T00:01:43;99164.41;;;21.45;59.41
35704;BME280;21820;51.112;13.762;2023-03-22T00:04:10;99155.94;;;21.43;59.79
35704;BME280;21820;51.112;13.762;2023-03-22T00:06:35;99155.78;;;21.45;60.00
35704;BME280;21820;51.112;13.762;2023-03-22T00:09:01;99156.16;;;21.50;59.48
35704;BME280;21820;51.112;13.762;2023-03-22T00:11:26;99153.69;;;21.48;60.49
35704;BME280;21820;51.112;13.762;2023-03-22T00:13:52;99150.25;;;21.48;59.78
35704;BME280;21820;51.112;13.762;2023-03-22T00:16:18;99153.69;;;21.48;60.02
35704;BME280;21820;51.112;13.762;2023-03-22T00:18:44;99152.41;;;21.52;59.24
35704;BME280;21820;51.112;13.762;2023-03-22T00:21:11;99154.88;;;21.54;60.30
35704;BME280;21820;51.112;13.762;2023-03-22T00:23:37;99158.63;;;21.51;59.29
35704;BME280;21820;51.112;13.762;2023-03-22T00:26:03;99142.91;;;21.51;60.35
35704;BME280;21820;51.112;13.762;2023-03-22T00:28:28;99143.44;;;21.55;60.65
35704;BME280;21820;51.112;13.762;2023-03-22T00:30:56;99145.06;;;21.56;60.43
35704;BME280;21820;51.112;13.762;2023-03-22T00:33:22;99136.41;;;21.55;59.83
35704;BME280;21820;51.112;13.762;2023-03-22T00:35:53;99130.22;;;21.56;61.14
35704;BME280;21820;51.112;13.762;2023-03-22T00:38:19;99133.50;;;21.58;60.43
35704;BME280;21820;51.112;13.762;2023-03-22T00:40:44;99131.25;;;21.63;60.75
35704;BME280;21820;51.112;13.762;2023-03-22T00:43:10;99121.44;;;21.65;61.16
35704;BME280;21820;51.112;13.762;2023-03-22T00:45:35;99127.66;;;21.64;60.21
35704;BME280;21820;51.112;13.762;2023-03-22T00:48:02;99110.03;;;21.66;60.48
35704;BME280;21820;51.112;13.762;2023-03-22T00:50:28;99107.56;;;21.65;59.90
35704;BME280;21820;51.112;13.762;2023-03-22T00:52:53;99091.94;;;21.55;60.85
35704;BME280;21820;51.112;13.762;2023-03-22T00:55:18;99096.78;;;21.68;60.54
35704;BME280;21820;51.112;13.762;2023-03-22T00:57:44;99110.03;;;21.66;60.33
35704;BME280;21820;51.112;13.762;2023-03-22T01:00:09;99102.81;;;21.68;60.37
35704;BME280;21820;51.112;13.762;2023-03-22T01:02:37;99104.78;;;21.66;60.99
35704;BME280;21820;51.112;13.762;2023-03-22T01:05:03;99113.44;;;21.67;60.87
35704;BME280;21820;51.112;13.762;2023-03-22T01:07:31;99107.25;;;21.68;60.90
35704;BME280;21820;51.112;13.762;2023-03-22T01:09:56;99089.09;;;21.66;60.62
35704;BME280;21820;51.112;13.762;2023-03-22T01:12:22;99092.75;;;21.56;60.37
35704;BME280;21820;51.112;13.762;2023-03-22T01:14:47;99108.38;;;21.65;60.83
35704;BME280;21820;51.112;13.762;2023-03-22T01:17:12;99103.66;;;21.69;60.82
35704;BME280;21820;51.112;13.762;2023-03-22T01:19:38;99099.25;;;21.69;60.84
35704;BME280;21820;51.112;13.762;2023-03-22T01:22:04;99107.78;;;21.71;61.32
35704;BME280;21820;51.112;13.762;2023-03-22T01:24:30;99105.16;;;21.71;60.60
35704;BME280;21820;51.112;13.762;2023-03-22T01:26:56;99099.25;;;21.69;60.56
35704;BME280;21820;51.112;13.762;2023-03-22T01:29:22;99094.84;;;21.70;60.32
35704;BME280;21820;51.112;13.762;2023-03-22T01:31:47;99083.72;;;21.68;60.72
35704;BME280;21820;51.112;13.762;2023-03-22T01:34:12;99061.91;;;21.59;60.94
35704;BME280;21820;51.112;13.762;2023-03-22T01:36:38;99085.19;;;21.70;60.88
35704;BME280;21820;51.112;13.762;2023-03-22T01:39:03;99085.88;;;21.72;60.72
35704;BME280;21820;51.112;13.762;2023-03-22T01:41:29;99085.19;;;21.70;60.84
35704;BME280;21820;51.112;13.762;2023-03-22T01:44:31;99083.25;;;21.72;61.42
35704;BME280;21820;51.112;13.762;2023-03-22T01:46:57;99084.22;;;21.71;60.45
35704;BME280;21820;51.112;13.762;2023-03-22T01:49:30;99079.16;;;21.70;61.31
35704;BME280;21820;51.112;13.762;2023-03-22T01:52:08;99070.63;;;21.68;60.73
35704;BME280;21820;51.112;13.762;2023-03-22T01:54:44;99055.03;;;21.58;61.19
35704;BME280;21820;51.112;13.762;2023-03-22T01:57:11;99083.56;;;21.69;60.31
35704;BME280;21820;51.112;13.762;2023-03-22T01:59:37;99072.09;;;21.70;61.13
35704;BME280;21820;51.112;13.762;2023-03-22T02:02:04;99068.69;;;21.70;60.73
35704;BME280;21820;51.112;13.762;2023-03-22T02:04:32;99073.91;;;21.70;60.93
35704;BME280;21820;51.112;13.762;2023-03-22T02:07:05;99064.25;;;21.70;61.35
35704;BME280;21820;51.112;13.762;2023-03-22T02:09:37;99066.88;;;21.70;60.94
35704;BME280;21820;51.112;13.762;2023-03-22T02:18:02;99055.25;;;21.65;61.17
35704;BME280;21820;51.112;13.762;2023-03-22T02:34:10;99063.00;;;21.74;61.07
35704;BME280;21820;51.112;13.762;2023-03-22T02:47:41;99065.59;;;21.74;60.72
35704;BME280;21820;51.112;13.762;2023-03-22T02:55:33;99062.84;;;21.76;60.62
35704;BME280;21820;51.112;13.762;2023-03-22T03:00:52;99043.00;;;21.73;60.60
35704;BME280;21820;51.112;13.762;2023-03-22T03:03:18;99037.09;;;21.63;59.95
35704;BME280;21820;51.112;13.762;2023-03-22T03:05:53;99044.66;;;21.74;60.97
35704;BME280;21820;51.112;13.762;2023-03-22T03:08:21;99033.47;;;21.64;60.04
35704;BME280;21820;51.112;13.762;2023-03-22T03:10:49;99052.69;;;21.73;60.30
35704;BME280;21820;51.112;13.762;2023-03-22T03:13:16;99065.91;;;21.71;59.94
35704;BME280;21820;51.112;13.762;2023-03-22T03:15:43;99036.47;;;21.69;60.31
35704;BME280;21820;51.112;13.762;2023-03-22T03:26:12;99041.69;;;21.69;60.46
35704;BME280;21820;51.112;13.762;2023-03-22T03:33:43;99056.41;;;21.70;60.15
35704;BME280;21820;51.112;13.762;2023-03-22T03:36:11;99041.81;;;21.60;60.55
35704;BME280;21820;51.112;13.762;2023-03-22T03:38:41;99053.94;;;21.69;60.44
35704;BME280;21820;51.112;13.762;2023-03-22T03:41:11;99049.53;;;21.69;60.39
35704;BME280;21820;51.112;13.762;2023-03-22T03:43:38;99049.69;;;21.68;60.13
35704;BME280;21820;51.112;13.762;2023-03-22T03:46:06;99057.38;;;21.69;59.38
35704;BME280;21820;51.112;13.762;2023-03-22T03:48:34;99051.31;;;21.69;60.52
35704;BME280;21820;51.112;13.762;2023-03-22T03:51:02;99060.84;;;21.70;60.18
35704;BME280;21820;51.112;13.762;2023-03-22T03:53:28;99054.78;;;21.69;60.18
35704;BME280;21820;51.112;13.762;2023-03-22T03:55:54;99055.72;;;21.68;60.11
35704;BME280;21820;51.112;13.762;2023-03-22T03:58:20;99051.63;;;21.66;60.49
35704;BME280;21820;51.112;13.762;2023-03-22T04:00:45;99052.47;;;21.66;59.97
35704;BME280;21820;51.112;13.762;2023-03-22T04:03:12;99032.75;;;21.54;59.71
35704;BME280;21820;51.112;13.762;2023-03-22T04:05:37;99045.56;;;21.65;59.83
35704;BME280;21820;51.112;13.762;2023-03-22T04:08:03;99033.28;;;21.58;60.23
35704;BME280;21820;51.112;13.762;2023-03-22T04:10:29;99049.69;;;21.68;59.67
35704;BME280;21820;51.112;13.762;2023-03-22T04:12:54;99049.03;;;21.66;59.98
35704;BME280;21820;51.112;13.762;2023-03-22T04:15:19;99050.16;;;21.63;60.14
35704;BME280;21820;51.112;13.762;2023-03-22T04:17:45;99054.41;;;21.64;59.85
35704;BME280;21820;51.112;13.762;2023-03-22T04:20:11;99050.16;;;21.63;60.42
35704;BME280;21820;51.112;13.762;2023-03-22T04:22:38;99051.13;;;21.62;60.27
35704;BME280;21820;51.112;13.762;2023-03-22T04:25:05;99042.38;;;21.54;59.91
35704;BME280;21820;51.112;13.762;2023-03-22T04:27:36;99049.50;;;21.61;59.50
35704;BME280;21820;51.112;13.762;2023-03-22T04:30:02;99045.88;;;21.62;60.66
35704;BME280;21820;51.112;13.762;2023-03-22T04:32:29;99050.28;;;21.62;60.58
35704;BME280;21820;51.112;13.762;2023-03-22T04:34:54;99048.75;;;21.51;58.33
35704;BME280;21820;51.112;13.762;2023-03-22T04:37:20;99026.69;;;21.28;60.53
35704;BME280;21820;51.112;13.762;2023-03-22T04:39:48;99033.22;;;21.32;59.94
35704;BME280;21820;51.112;13.762;2023-03-22T04:42:14;99023.09;;;21.29;59.05
35704;BME280;21820;51.112;13.762;2023-03-22T04:44:39;99050.81;;;21.65;58.46
35704;BME280;21820;51.112;13.762;2023-03-22T04:47:05;99053.00;;;21.95;57.33
35704;BME280;21820;51.112;13.762;2023-03-22T04:49:30;99040.50;;;22.15;55.93
35704;BME280;21820;51.112;13.762;2023-03-22T04:51:56;99039.13;;;22.37;55.96
35704;BME280;21820;51.112;13.762;2023-03-22T04:54:22;99039.50;;;22.50;55.31
35704;BME280;21820;51.112;13.762;2023-03-22T04:56:49;99043.19;;;22.65;54.69
35704;BME280;21820;51.112;13.762;2023-03-22T04:59:14;99047.00;;;22.78;54.39
35704;BME280;21820;51.112;13.762;2023-03-22T05:01:47;99044.56;;;22.93;53.83
35704;BME280;21820;51.112;13.762;2023-03-22T05:04:13;99039.16;;;23.02;53.53
35704;BME280;21820;51.112;13.762;2023-03-22T05:06:39;99039.50;;;23.15;53.87
35704;BME280;21820;51.112;13.762;2023-03-22T05:09:05;99038.03;;;23.21;53.50
35704;BME280;21820;51.112;13.762;2023-03-22T05:11:30;99035.94;;;23.33;53.38
35704;BME280;21820;51.112;13.762;2023-03-22T05:13:56;99036.41;;;23.44;52.69
35704;BME280;21820;51.112;13.762;2023-03-22T05:16:22;99032.81;;;23.53;52.88
35704;BME280;21820;51.112;13.762;2023-03-22T05:18:47;99030.03;;;23.55;52.07
35704;BME280;21820;51.112;13.762;2023-03-22T05:21:15;99030.34;;;23.68;52.21
35704;BME280;21820;51.112;13.762;2023-03-22T05:23:42;99022.31;;;23.61;52.42
35704;BME280;21820;51.112;13.762;2023-03-22T05:26:08;99039.66;;;23.86;51.32
35704;BME280;21820;51.112;13.762;2023-03-22T05:28:35;99035.69;;;23.90;51.20
35704;BME280;21820;51.112;13.762;2023-03-22T05:31:01;99037.53;;;23.98;50.94
35704;BME280;21820;51.112;13.762;2023-03-22T05:33:27;99037.19;;;24.01;51.57
35704;BME280;21820;51.112;13.762;2023-03-22T05:35:54;99044.72;;;24.04;51.24
35704;BME280;21820;51.112;13.762;2023-03-22T05:38:20;99045.53;;;23.96;51.30
35704;BME280;21820;51.112;13.762;2023-03-22T05:40:49;99041.28;;;23.87;51.87
35704;BME280;21820;51.112;13.762;2023-03-22T05:43:14;99033.13;;;23.74;51.46
35704;BME280;21820;51.112;13.762;2023-03-22T05:45:40;99038.72;;;23.63;52.12
35704;BME280;21820;51.112;13.762;2023-03-22T05:48:06;99034.78;;;23.51;52.84
35704;BME280;21820;51.112;13.762;2023-03-22T05:50:32;99039.38;;;23.41;52.90
35704;BME280;21820;51.112;13.762;2023-03-22T05:52:58;99033.28;;;23.24;53.41
35704;BME280;21820;51.112;13.762;2023-03-22T05:55:23;99020.34;;;23.07;53.78
35704;BME280;21820;51.112;13.762;2023-03-22T05:57:48;99037.69;;;23.00;54.16
35704;BME280;21820;51.112;13.762;2023-03-22T06:00:16;99029.47;;;22.87;54.41
35704;BME280;21820;51.112;13.762;2023-03-22T06:02:43;99033.38;;;22.75;54.92
35704;BME280;21820;51.112;13.762;2023-03-22T06:05:09;99032.03;;;22.63;55.17
35704;BME280;21820;51.112;13.762;2023-03-22T06:07:38;99021.81;;;22.52;55.27
35704;BME280;21820;51.112;13.762;2023-03-22T06:10:06;99034.91;;;22.44;55.20
35704;BME280;21820;51.112;13.762;2023-03-22T06:12:32;99038.78;;;22.32;56.24
35704;BME280;21820;51.112;13.762;2023-03-22T06:14:58;99049.06;;;22.25;56.24
35704;BME280;21820;51.112;13.762;2023-03-22T06:17:24;99022.34;;;22.14;56.44
35704;BME280;21820;51.112;13.762;2023-03-22T06:19:50;99031.94;;;22.05;56.92
35704;BME280;21820;51.112;13.762;2023-03-22T06:22:16;99039.34;;;22.10;56.81
35704;BME280;21820;51.112;13.762;2023-03-22T06:24:41;99027.41;;;22.15;56.68
35704;BME280;21820;51.112;13.762;2023-03-22T06:27:08;99019.75;;;22.22;56.12
35704;BME280;21820;51.112;13.762;2023-03-22T06:29:33;99022.75;;;22.35;56.16
35704;BME280;21820;51.112;13.762;2023-03-22T06:31:59;99021.47;;;22.47;55.67
35704;BME280;21820;51.112;13.762;2023-03-22T06:34:25;99030.41;;;22.62;55.23
35704;BME280;21820;51.112;13.762;2023-03-22T06:36:50;99018.16;;;22.78;54.79
35704;BME280;21820;51.112;13.762;2023-03-22T06:39:17;99027.19;;;22.92;54.46
35704;BME280;21820;51.112;13.762;2023-03-22T06:41:42;99017.06;;;22.97;53.77
35704;BME280;21820;51.112;13.762;2023-03-22T06:44:07;99029.84;;;23.16;53.74
35704;BME280;21820;51.112;13.762;2023-03-22T06:46:33;99032.94;;;23.11;53.78
35704;BME280;21820;51.112;13.762;2023-03-22T06:48:58;99026.88;;;23.11;53.81
35704;BME280;21820;51.112;13.762;2023-03-22T06:51:23;99008.53;;;23.03;54.12
35704;BME280;21820;51.112;13.762;2023-03-22T06:53:49;99027.22;;;23.00;54.37
35704;BME280;21820;51.112;13.762;2023-03-22T06:56:14;99028.00;;;22.92;54.47
35704;BME280;21820;51.112;13.762;2023-03-22T06:58:40;99026.53;;;22.82;54.64
35704;BME280;21820;51.112;13.762;2023-03-22T07:01:05;99028.13;;;22.75;54.86
35704;BME280;21820;51.112;13.762;2023-03-22T07:03:31;99026.78;;;22.63;54.98
35704;BME280;21820;51.112;13.762;2023-03-22T07:06:04;99025.97;;;22.54;55.28
35704;BME280;21820;51.112;13.762;2023-03-22T07:08:30;99035.72;;;22.44;55.59
35704;BME280;21820;51.112;13.762;2023-03-22T07:10:55;99028.66;;;22.37;55.80
35704;BME280;21820;51.112;13.762;2023-03-22T07:13:20;99029.47;;;22.29;56.39
35704;BME280;21820;51.112;13.762;2023-03-22T07:15:46;99024.97;;;22.22;56.35
35704;BME280;21820;51.112;13.762;2023-03-22T07:18:11;99023.13;;;22.06;56.18
35704;BME280;21820;51.112;13.762;2023-03-22T07:20:36;99031.78;;;22.07;57.04
35704;BME280;21820;51.112;13.762;2023-03-22T07:23:04;99023.84;;;21.90;56.84
35704;BME280;21820;51.112;13.762;2023-03-22T07:25:30;99027.00;;;21.94;57.15
35704;BME280;21820;51.112;13.762;2023-03-22T07:27:55;99032.91;;;21.96;57.30
35704;BME280;21820;51.112;13.762;2023-03-22T07:30:20;99027.84;;;22.03;56.67
35704;BME280;21820;51.112;13.762;2023-03-22T07:32:46;99008.53;;;22.04;56.79
35704;BME280;21820;51.112;13.762;2023-03-22T07:35:11;99027.97;;;22.27;56.39
35704;BME280;21820;51.112;13.762;2023-03-22T07:37:36;99020.97;;;22.43;55.94
35704;BME280;21820;51.112;13.762;2023-03-22T07:40:03;99029.41;;;22.55;55.91
35704;BME280;21820;51.112;13.762;2023-03-22T07:42:29;99020.94;;;22.69;55.02
35704;BME280;21820;51.112;13.762;2023-03-22T07:44:55;99023.25;;;22.88;54.52
35704;BME280;21820;51.112;13.762;2023-03-22T07:47:21;99024.59;;;23.00;54.04
35704;BME280;21820;51.112;13.762;2023-03-22T07:49:46;99019.34;;;23.08;54.19
35704;BME280;21820;51.112;13.762;2023-03-22T07:52:11;99024.09;;;23.04;53.78
35704;BME280;21820;51.112;13.762;2023-03-22T07:54:37;99020.00;;;23.02;53.92
35704;BME280;21820;51.112;13.762;2023-03-22T07:57:03;99022.97;;;22.99;53.69
35704;BME280;21820;51.112;13.762;2023-03-22T07:59:28;99027.19;;;22.92;54.46
35704;BME280;21820;51.112;13.762;2023-03-22T08:01:53;99016.72;;;22.84;54.79
35704;BME280;21820;51.112;13.762;2023-03-22T08:04:19;99019.16;;;22.77;54.59
35704;BME280;21820;51.112;13.762;2023-03-22T08:06:46;99018.63;;;22.66;55.40
35704;BME280;21820;51.112;13.762;2023-03-22T08:09:13;99026.63;;;22.56;55.86
35704;BME280;21820;51.112;13.762;2023-03-22T08:11:38;99020.38;;;22.49;55.90
35704;BME280;21820;51.112;13.762;2023-03-22T08:14:03;99010.97;;;22.31;56.12
35704;BME280;21820;51.112;13.762;2023-03-22T08:16:29;99028.97;;;22.34;56.02
35704;BME280;21820;51.112;13.762;2023-03-22T08:18:54;99026.47;;;22.24;56.48
35704;BME280;21820;51.112;13.762;2023-03-22T08:21:19;99030.69;;;22.17;56.77
35704;BME280;21820;51.112;13.762;2023-03-22T08:23:45;99015.72;;;22.02;57.12
35704;BME280;21820;51.112;13.762;2023-03-22T08:26:11;99023.56;;;22.02;56.56
35704;BME280;21820;51.112;13.762;2023-03-22T08:28:37;99022.94;;;22.00;56.90
35704;BME280;21820;51.112;13.762;2023-03-22T08:31:12;99019.78;;;21.88;57.01
35704;BME280;21820;51.112;13.762;2023-03-22T08:33:37;99023.19;;;21.88;57.65
35704;BME280;21820;51.112;13.762;2023-03-22T08:36:08;99019.56;;;21.81;57.42
35704;BME280;21820;51.112;13.762;2023-03-22T08:38:34;99019.41;;;21.83;57.90
35704;BME280;21820;51.112;13.762;2023-03-22T08:40:59;99013.69;;;21.87;57.63
35704;BME280;21820;51.112;13.762;2023-03-22T08:43:25;99020.47;;;21.98;57.75
35704;BME280;21820;51.112;13.762;2023-03-22T08:45:50;99016.16;;;22.15;57.12
35704;BME280;21820;51.112;13.762;2023-03-22T08:48:15;99018.97;;;22.29;56.56
35704;BME280;21820;51.112;13.762;2023-03-22T08:50:41;99014.28;;;22.41;56.61
35704;BME280;21820;51.112;13.762;2023-03-22T08:53:06;99019.09;;;22.61;55.97
35704;BME280;21820;51.112;13.762;2023-03-22T08:55:31;99007.50;;;22.72;54.81
35704;BME280;21820;51.112;13.762;2023-03-22T08:58:00;99015.72;;;22.93;54.52
35704;BME280;21820;51.112;13.762;2023-03-22T09:00:25;99011.47;;;22.92;54.45
35704;BME280;21820;51.112;13.762;2023-03-22T09:02:51;99013.94;;;22.93;54.30
35704;BME280;21820;51.112;13.762;2023-03-22T09:05:17;99018.66;;;22.90;54.77
35704;BME280;21820;51.112;13.762;2023-03-22T09:07:42;99011.13;;;22.87;54.52
35704;BME280;21820;51.112;13.762;2023-03-22T09:10:09;99004.06;;;22.71;55.35
35704;BME280;21820;51.112;13.762;2023-03-22T09:12:35;99007.84;;;22.69;55.28
35704;BME280;21820;51.112;13.762;2023-03-22T09:15:01;99007.00;;;22.60;55.01
35704;BME280;21820;51.112;13.762;2023-03-22T09:17:26;99011.72;;;22.57;55.91
35704;BME280;21820;51.112;13.762;2023-03-22T09:19:51;99002.47;;;22.45;55.79
35704;BME280;21820;51.112;13.762;2023-03-22T09:22:17;99000.84;;;22.36;56.62
35704;BME280;21820;51.112;13.762;2023-03-22T09:24:42;98990.94;;;22.22;56.20
35704;BME280;21820;51.112;13.762;2023-03-22T09:27:08;98995.22;;;22.23;56.46
35704;BME280;21820;51.112;13.762;2023-03-22T09:29:33;98991.59;;;22.16;56.74
35704;BME280;21820;51.112;13.762;2023-03-22T09:31:58;98990.56;;;22.09;56.97
35704;BME280;21820;51.112;13.762;2023-03-22T09:34:24;98980.75;;;22.03;56.97
35704;BME280;21820;51.112;13.762;2023-03-22T09:36:49;98981.66;;;21.93;57.14
35704;BME280;21820;51.112;13.762;2023-03-22T09:39:17;98988.38;;;21.88;57.28
35704;BME280;21820;51.112;13.762;2023-03-22T09:41:45;98977.38;;;21.84;57.41
35704;BME280;21820;51.112;13.762;2023-03-22T09:44:24;98956.03;;;21.71;58.33
35704;BME280;21820;51.112;13.762;2023-03-22T09:46:52;98972.47;;;21.81;58.29
35704;BME280;21820;51.112;13.762;2023-03-22T09:49:22;98965.91;;;21.77;58.62
35704;BME280;21820;51.112;13.762;2023-03-22T09:51:50;98959.91;;;21.67;57.98
35704;BME280;21820;51.112;13.762;2023-03-22T09:54:19;98968.88;;;21.82;58.57
35704;BME280;21820;51.112;13.762;2023-03-22T09:56:52;98961.69;;;21.84;58.12
35704;BME280;21820;51.112;13.762;2023-03-22T09:59:51;98961.25;;;21.97;57.25
35704;BME280;21820;51.112;13.762;2023-03-22T10:10:29;98944.28;;;22.67;55.59
35704;BME280;21820;51.112;13.762;2023-03-22T10:15:39;98941.50;;;22.68;55.40
35704;BME280;21820;51.112;13.762;2023-03-22T10:18:10;98929.50;;;22.58;55.30
35704;BME280;21820;51.112;13.762;2023-03-22T10:23:16;98944.59;;;22.56;55.43
35704;BME280;21820;51.112;13.762;2023-03-22T10:25:42;98930.47;;;22.49;55.86
35704;BME280;21820;51.112;13.762;2023-03-22T10:28:33;98926.00;;;22.33;56.11
35704;BME280;21820;51.112;13.762;2023-03-22T10:31:00;98933.06;;;22.33;56.29
35704;BME280;21820;51.112;13.762;2023-03-22T10:33:36;98925.16;;;22.25;56.43
35704;BME280;21820;51.112;13.762;2023-03-22T10:36:02;98916.66;;;22.15;56.87
35704;BME280;21820;51.112;13.762;2023-03-22T10:38:29;98925.78;;;22.11;56.73
35704;BME280;21820;51.112;13.762;2023-03-22T10:40:57;98923.00;;;22.04;56.79
35704;BME280;21820;51.112;13.762;2023-03-22T10:43:31;98903.16;;;21.93;57.12
35704;BME280;21820;51.112;13.762;2023-03-22T10:46:01;98900.69;;;21.92;57.75
35704;BME280;21820;51.112;13.762;2023-03-22T10:48:32;98887.41;;;21.77;57.97
35704;BME280;21820;51.112;13.762;2023-03-22T10:51:00;98895.59;;;21.82;57.83
35704;BME280;21820;51.112;13.762;2023-03-22T10:53:38;98907.50;;;21.77;57.95
35704;BME280;21820;51.112;13.762;2023-03-22T10:56:08;98901.47;;;21.76;58.67
35704;BME280;21820;51.112;13.762;2023-03-22T10:58:35;98908.94;;;21.71;58.20
35704;BME280;21820;51.112;13.762;2023-03-22T11:12:12;98905.34;;;21.72;59.82
35704;BME280;21820;51.112;13.762;2023-03-22T11:14:19;98896.50;;;21.73;60.13
35704;BME280;21820;51.112;13.762;2023-03-22T11:17:07;98890.63;;;21.71;60.74
35704;BME280;21820;51.112;13.762;2023-03-22T11:19:36;98897.66;;;21.71;59.65
35704;BME280;21820;51.112;13.762;2023-03-22T11:22:06;98879.34;;;21.71;60.44
35704;BME280;21820;51.112;13.762;2023-03-22T11:24:32;98874.25;;;21.69;59.83
35704;BME280;21820;51.112;13.762;2023-03-22T11:30:27;98872.91;;;21.65;59.72
35704;BME280;21820;51.112;13.762;2023-03-22T11:33:20;98866.22;;;21.63;58.84
35704;BME280;21820;51.112;13.762;2023-03-22T11:35:52;98853.97;;;21.63;58.72
35704;BME280;21820;51.112;13.762;2023-03-22T11:38:27;98850.69;;;21.61;60.59
35704;BME280;21820;51.112;13.762;2023-03-22T11:40:59;98846.25;;;21.62;60.46
35704;BME280;21820;51.112;13.762;2023-03-22T11:43:30;98840.91;;;21.63;60.56
35704;BME280;21820;51.112;13.762;2023-03-22T11:45:57;98837.25;;;21.56;58.96
35704;BME280;21820;51.112;13.762;2023-03-22T11:48:26;98833.03;;;21.63;60.84
35704;BME280;21820;51.112;13.762;2023-03-22T11:50:55;98825.84;;;21.65;60.08
35704;BME280;21820;51.112;13.762;2023-03-22T11:53:24;98806.84;;;21.55;58.85
35704;BME280;21820;51.112;13.762;2023-03-22T11:55:53;98821.63;;;21.72;58.83
35704;BME280;21820;51.112;13.762;2023-03-22T12:01:04;98808.16;;;22.09;57.29
35704;BME280;21820;51.112;13.762;2023-03-22T12:03:42;98809.63;;;22.20;57.02
35704;BME280;21820;51.112;13.762;2023-03-22T12:06:21;98802.09;;;22.25;56.47
35704;BME280;21820;51.112;13.762;2023-03-22T12:08:55;98809.00;;;22.26;56.37
35704;BME280;21820;51.112;13.762;2023-03-22T12:11:30;98783.94;;;22.15;56.51
35704;BME280;21820;51.112;13.762;2023-03-22T12:14:46;98800.13;;;22.19;56.71
35704;BME280;21820;51.112;13.762;2023-03-22T12:16:57;98791.94;;;22.14;57.35
35704;BME280;21820;51.112;13.762;2023-03-22T12:22:34;98772.47;;;21.92;57.28
35704;BME280;21820;51.112;13.762;2023-03-22T12:25:01;98780.81;;;21.95;57.78
35704;BME280;21820;51.112;13.762;2023-03-22T12:27:36;98789.94;;;21.91;57.29
35704;BME280;21820;51.112;13.762;2023-03-22T12:30:10;98785.38;;;21.85;58.27
35704;BME280;21820;51.112;13.762;2023-03-22T12:32:39;98764.44;;;21.77;58.02
35704;BME280;21820;51.112;13.762;2023-03-22T12:35:12;98778.50;;;21.76;57.94
35704;BME280;21820;51.112;13.762;2023-03-22T12:37:40;98760.75;;;21.62;58.57
35704;BME280;21820;51.112;13.762;2023-03-22T12:40:21;98775.81;;;21.68;58.03
35704;BME280;21820;51.112;13.762;2023-03-22T12:45:43;98768.63;;;21.62;58.89
35704;BME280;21820;51.112;13.762;2023-03-22T12:48:13;98775.50;;;21.63;58.77
35704;BME280;21820;51.112;13.762;2023-03-22T12:50:52;98774.16;;;21.59;59.42
35704;BME280;21820;51.112;13.762;2023-03-22T12:53:21;98762.56;;;21.62;59.68
35704;BME280;21820;51.112;13.762;2023-03-22T12:55:50;98759.47;;;21.58;59.57
35704;BME280;21820;51.112;13.762;2023-03-22T12:58:19;98764.22;;;21.63;59.48
35704;BME280;21820;51.112;13.762;2023-03-22T13:03:18;98763.06;;;21.65;60.08
35704;BME280;21820;51.112;13.762;2023-03-22T13:05:46;98759.81;;;21.63;59.88
35704;BME280;21820;51.112;13.762;2023-03-22T13:08:21;98754.56;;;21.63;60.82
35704;BME280;21820;51.112;13.762;2023-03-22T13:21:19;98742.09;;;21.49;60.47
35704;BME280;21820;51.112;13.762;2023-03-22T13:23:52;98723.28;;;21.46;60.60
35704;BME280;21820;51.112;13.762;2023-03-22T13:26:18;98741.16;;;21.58;59.93
35704;BME280;21820;51.112;13.762;2023-03-22T13:28:56;98744.72;;;21.57;61.16
35704;BME280;21820;51.112;13.762;2023-03-22T13:31:39;98722.31;;;21.47;61.77
35704;BME280;21820;51.112;13.762;2023-03-22T13:34:12;98738.50;;;21.50;59.86
35704;BME280;21820;51.112;13.762;2023-03-22T13:36:38;98748.00;;;21.51;59.81
35704;BME280;21820;51.112;13.762;2023-03-22T13:39:08;98735.25;;;21.48;59.64
35704;BME280;21820;51.112;13.762;2023-03-22T13:41:34;98730.31;;;21.45;60.36
35704;BME280;21820;51.112;13.762;2023-03-22T13:44:30;98735.53;;;21.45;60.93
35704;BME280;21820;51.112;13.762;2023-03-22T13:47:00;98726.06;;;21.44;60.50
35704;BME280;21820;51.112;13.762;2023-03-22T13:49:43;98715.59;;;21.44;59.55
35704;BME280;21820;51.112;13.762;2023-03-22T13:52:22;98718.53;;;21.41;61.92
35704;BME280;21820;51.112;13.762;2023-03-22T13:54:48;98719.22;;;21.43;59.34
35704;BME280;21820;51.112;13.762;2023-03-22T13:57:46;98713.00;;;21.44;62.46
35704;BME280;21820;51.112;13.762;2023-03-22T14:02:53;98703.53;;;21.51;61.02
35704;BME280;21820;51.112;13.762;2023-03-22T14:05:22;98700.75;;;21.53;61.01
35704;BME280;21820;51.112;13.762;2023-03-22T14:07:52;98703.22;;;21.54;59.87
35704;BME280;21820;51.112;13.762;2023-03-22T14:15:48;98697.41;;;21.92;58.35
35704;BME280;21820;51.112;13.762;2023-03-22T14:18:19;98695.09;;;22.06;57.48
35704;BME280;21820;51.112;13.762;2023-03-22T14:20:50;98691.81;;;22.12;57.13
35704;BME280;21820;51.112;13.762;2023-03-22T14:23:34;98690.50;;;22.16;57.23
35704;BME280;21820;51.112;13.762;2023-03-22T14:26:07;98683.66;;;22.15;57.02
35704;BME280;21820;51.112;13.762;2023-03-22T14:28:38;98675.63;;;22.08;57.46
35704;BME280;21820;51.112;13.762;2023-03-22T14:31:13;98683.63;;;22.07;57.45
35704;BME280;21820;51.112;13.762;2023-03-22T14:33:41;98673.66;;;22.02;57.90
35704;BME280;21820;51.112;13.762;2023-03-22T14:36:11;98685.75;;;21.95;57.71
35704;BME280;21820;51.112;13.762;2023-03-22T14:38:40;98688.88;;;21.90;57.39
35704;BME280;21820;51.112;13.762;2023-03-22T14:43:35;98686.75;;;21.78;57.90
35704;BME280;21820;51.112;13.762;2023-03-22T14:46:12;98690.63;;;21.74;58.54
35704;BME280;21820;51.112;13.762;2023-03-22T14:48:38;98684.25;;;21.68;58.78